Kezdőlap
METAR-TAF:

METAR-TAF

Repülőterek :

Gaborone, Botswana

földrajzi szélesség: 24-13S, földrajzi hosszúság: 025-55E, magasság: 1005 m

Jelenlegi meteorológiai megfigyelések

A jelentés 1 órával és 10 perccel ezelõtt készült, 06:00 UTC
Délkeleti szél 2 kt, keleti és dél-délkeleti között változik
Hőmérséklet 9°C
Páratartalom 81%
Légköri nyomás 1032 hPa
Látótávolság 10 km, vagy több
felhőtlen 1500 m magasságban, és nincs gomolyfelhõ

METAR: FBSK 240600Z 13002KT 080V150 CAVOK 09/06 Q1032 NOSIG

Idő: 09:10 (07:10 UTC)

Előrejelzés

A jelentés 3 órával és 10 perccel ezelõtt készült, 04:00 UTC
Az előrejelzés 24-én 06 óra UTC és 25-én 12 óra UTC között érvényes
Különbözõ irányokból fújó szél 1 kt
Látótávolság 10 km, vagy több
Szakadozott felhőzet 2000 lábon
24-én 08 óra UTC és 24-én 10 óra UTC között fokozatosan kialakuló
Kelet-északkeleti szél 6 kt

TAF: FBSK 240400Z 2406/2512 VRB01KT 9999 BKN020 BECMG 2408/2410 07006KT

Meteorológiai megfigyelések és előrejelzések több, mint 4000 repülőtéren (METAR és TAF jelentéseket).

A térképen piros és sárga pontok jelzik az elérhető meteorológiai állomásokat.

Mozgassa az egeret a pont fölött, hogy megjelenjen az állomás neve.

Azután kattintson az időjárási megfigyelések és előrejelzések megtekintéséhez.

A térkép megváltoztatása: kattintson a fekete keresztel jelölt zöld gombra ráközelítéshez, a vonallal jelölt zöld gombra távolításhoz, vagy a zöld nyilakra a szomszédos térképek eléréséhez.


METAR-TAF: